Archival Weather

Snohomish County (Paine Fld)

Everett, Washington (KPAE)

Report from: Saturday, October 28, 2023 8:53 AM PDT
Current time: Monday, June 24, 2024 2:40 AM PDT

Current weather – Weather history – Daily summaries
Weather forecast

Temperature2.8°C (37.0°F)
Wind chill-0.6°C (31.0°F)
Dew point-3.9°C (25.0°F)
Winds 7 kts (3.6 m/s, 8.1 mph) East-Southeast (110°)
Visibility10 mi. (16.1 km)
Clouds Sky clear
Altimeter30.52 in.Hg (1034 mB)
Relative humidity61 %
Density altitude-2,115 ft. (-645 m)
Sea-level pressure103.4 kPa (1034 mB, 30.54 in.Hg)
Remarks Automated weather observing station with precipitation discriminator
Flight conditions Visual Meteorological Conditions
Raw dataKPAE 281553Z 11007KT 10SM CLR 03/M04 A3052 RMK AO2 SLP341 T00281039
An error has occurred. This application may no longer respond until reloaded. Reload 🗙